Time;durP1;ratioP1;P1;durP2;ratioP2;P2;SDS_P1;SDS_P2;PMS_P1;PMS_P2;Temp;Humidity;BMP_temperature;BMP_pressure;BME280_temperature;BME280_humidity;BME280_pressure;Samples;Min_cycle;Max_cycle;Signal;HPM_P1;HPM_P2
2023/08/14 00:00:57;;;;;;;12.10;8.50;;;;;;;19.11;100.00;99137.97;141326;1243;22385;-79
2023/08/14 00:04:11;;;;;;;10.30;8.60;;;;;;;19.07;100.00;99138.38;140864;1243;22351;-80
2023/08/14 00:07:12;;;;;;;9.80;8.90;;;;;;;19.07;100.00;99141.55;140885;1243;22581;-79
2023/08/14 00:10:13;;;;;;;8.70;8.00;;;;;;;19.06;100.00;99140.49;141604;1243;22237;-79
2023/08/14 00:13:14;;;;;;;11.10;8.50;;;;;;;19.02;100.00;99137.73;140902;1243;22387;-80
2023/08/14 00:16:15;;;;;;;11.40;8.20;;;;;;;19.00;100.00;99139.36;140891;1240;22396;-81
2023/08/14 00:19:16;;;;;;;8.60;7.80;;;;;;;19.01;100.00;99144.11;141302;1243;22509;-82
2023/08/14 00:22:17;;;;;;;8.90;8.00;;;;;;;19.00;100.00;99142.54;141002;1243;22405;-81
2023/08/14 00:25:18;;;;;;;9.50;8.60;;;;;;;18.96;100.00;99144.54;140907;1243;22551;-81
2023/08/14 00:28:19;;;;;;;9.20;8.40;;;;;;;18.92;100.00;99141.61;141081;1243;25307;-83
2023/08/14 00:31:20;;;;;;;9.10;8.20;;;;;;;18.91;100.00;99143.75;141277;1243;22186;-81
2023/08/14 00:34:21;;;;;;;10.00;8.90;;;;;;;18.91;100.00;99143.05;141038;1243;22418;-79
2023/08/14 00:37:23;;;;;;;9.40;8.50;;;;;;;18.88;100.00;99146.45;140906;1243;22499;-80
2023/08/14 00:40:24;;;;;;;9.40;8.50;;;;;;;18.88;100.00;99149.98;141413;1243;22394;-81
2023/08/14 00:43:25;;;;;;;10.20;9.00;;;;;;;18.87;100.00;99153.16;140847;1243;22249;-81
2023/08/14 00:46:26;;;;;;;9.50;8.70;;;;;;;18.86;100.00;99156.01;140908;1243;23029;-81
2023/08/14 00:49:27;;;;;;;9.90;8.90;;;;;;;18.86;100.00;99159.35;141523;1243;22421;-81
2023/08/14 00:52:31;;;;;;;10.00;9.10;;;;;;;18.86;100.00;99157.77;140911;1238;22440;-81
2023/08/14 00:55:32;;;;;;;9.80;8.80;;;;;;;18.82;100.00;99161.90;140824;1243;22528;-81
2023/08/14 00:58:33;;;;;;;10.70;8.80;;;;;;;18.76;100.00;99166.56;141306;1227;22520;-82
2023/08/14 01:01:34;;;;;;;9.00;8.20;;;;;;;18.75;100.00;99169.05;141208;1243;22438;-80
2023/08/14 01:04:35;;;;;;;10.50;8.00;;;;;;;18.73;100.00;99172.77;140944;1243;22426;-81
2023/08/14 01:07:36;;;;;;;9.70;8.80;;;;;;;18.72;100.00;99174.75;141065;1243;22548;-82
2023/08/14 01:10:37;;;;;;;12.20;8.90;;;;;;;18.70;100.00;99176.73;141389;1243;22821;-79
2023/08/14 01:13:38;;;;;;;11.80;8.40;;;;;;;18.68;100.00;99179.03;140825;1243;22420;-80
2023/08/14 01:16:40;;;;;;;8.50;7.60;;;;;;;18.66;100.00;99182.23;140922;1243;22594;-81
2023/08/14 01:19:41;;;;;;;9.90;8.70;;;;;;;18.66;100.00;99190.88;141547;1243;22383;-79
2023/08/14 01:22:42;;;;;;;9.20;8.30;;;;;;;18.66;100.00;99193.16;140849;1243;22340;-81
2023/08/14 01:25:43;;;;;;;9.80;8.90;;;;;;;18.64;100.00;99194.25;140924;1243;22358;-81
2023/08/14 01:28:44;;;;;;;9.30;8.40;;;;;;;18.64;100.00;99191.08;141426;1243;22528;-81
2023/08/14 01:31:46;;;;;;;9.50;8.60;;;;;;;18.63;100.00;99190.56;141101;1243;22819;-80
2023/08/14 01:34:47;;;;;;;9.90;9.00;;;;;;;18.60;100.00;99189.70;140900;1243;22523;-79
2023/08/14 01:37:48;;;;;;;10.90;9.00;;;;;;;18.59;100.00;99192.02;141089;1243;25941;-81
2023/08/14 01:40:49;;;;;;;10.10;8.80;;;;;;;18.59;100.00;99190.60;141336;1243;22408;-80
2023/08/14 01:43:52;;;;;;;38.90;11.20;;;;;;;18.57;100.00;99185.88;140810;1243;22368;-81
2023/08/14 01:46:53;;;;;;;9.10;7.80;;;;;;;18.55;100.00;99181.67;140909;1243;23294;-80
2023/08/14 01:49:54;;;;;;;30.20;10.30;;;;;;;18.52;100.00;99183.13;141614;1243;22347;-81
2023/08/14 01:52:55;;;;;;;11.90;9.60;;;;;;;18.52;100.00;99184.54;140890;1243;22541;-79
2023/08/14 01:55:56;;;;;;;9.30;8.50;;;;;;;18.49;100.00;99180.88;140860;1243;22517;-79
2023/08/14 01:58:57;;;;;;;9.40;8.30;;;;;;;18.47;100.00;99181.96;141537;1243;22512;-81
2023/08/14 02:01:58;;;;;;;10.00;8.10;;;;;;;18.45;100.00;99180.77;141042;1243;22373;-79
2023/08/14 02:04:59;;;;;;;10.30;7.90;;;;;;;18.40;100.00;99179.95;140846;1243;22579;-81
2023/08/14 02:08:00;;;;;;;9.30;7.90;;;;;;;18.38;100.00;99177.16;141283;1243;22462;-81
2023/08/14 02:11:02;;;;;;;8.90;7.60;;;;;;;18.35;100.00;99179.14;141222;1243;22399;-80
2023/08/14 02:14:03;;;;;;;8.80;8.00;;;;;;;18.33;100.00;99177.23;140873;1243;22365;-80
2023/08/14 02:17:04;;;;;;;8.20;7.50;;;;;;;18.33;100.00;99179.88;140925;1243;22527;-81
2023/08/14 02:20:11;;;;;;;8.80;7.80;;;;;;;18.33;100.00;99182.17;141428;1243;22348;-80
2023/08/14 02:23:12;;;;;;;10.70;8.20;;;;;;;18.33;100.00;99185.86;140814;1243;22562;-80
2023/08/14 02:26:13;;;;;;;8.90;8.00;;;;;;;18.31;100.00;99188.70;140919;1243;22518;-81
2023/08/14 02:29:14;;;;;;;12.40;8.70;;;;;;;18.32;100.00;99183.06;141517;1243;22741;-81
2023/08/14 02:32:15;;;;;;;9.30;8.30;;;;;;;18.37;100.00;99182.46;140831;1243;22353;-80
2023/08/14 02:35:16;;;;;;;9.90;9.00;;;;;;;18.41;100.00;99179.76;140917;1243;22886;-81
2023/08/14 02:38:17;;;;;;;14.00;9.80;;;;;;;18.45;100.00;99173.17;141310;1243;22512;-82
2023/08/14 02:41:18;;;;;;;9.90;9.00;;;;;;;18.50;100.00;99175.59;141011;1243;22465;-80
2023/08/14 02:44:19;;;;;;;12.50;10.40;;;;;;;18.54;100.00;99185.91;140843;1243;22358;-81
2023/08/14 02:47:21;;;;;;;11.50;10.50;;;;;;;18.61;100.00;99184.41;141156;1239;22608;-80
2023/08/14 02:50:24;;;;;;;11.80;10.70;;;;;;;18.67;100.00;99183.11;141246;1243;22790;-81
2023/08/14 02:53:25;;;;;;;11.30;10.10;;;;;;;18.72;100.00;99183.38;140870;1243;22889;-81
2023/08/14 02:56:27;;;;;;;10.90;9.90;;;;;;;18.73;100.00;99185.65;140971;1243;22625;-80
2023/08/14 02:59:28;;;;;;;11.60;9.90;;;;;;;18.75;100.00;99186.33;141512;1243;22557;-80
2023/08/14 03:02:29;;;;;;;11.10;10.00;;;;;;;18.76;100.00;99186.66;140887;1243;22413;-80
2023/08/14 03:05:30;;;;;;;12.80;11.60;;;;;;;18.80;100.00;99189.43;140843;1243;23009;-79
2023/08/14 03:08:31;;;;;;;11.80;10.20;;;;;;;18.84;100.00;99190.78;141490;1243;22447;-79
2023/08/14 03:11:32;;;;;;;15.80;11.20;;;;;;;18.89;100.00;99187.34;140890;1243;22415;-80
2023/08/14 03:14:33;;;;;;;15.70;11.20;;;;;;;18.92;100.00;99186.94;140840;1243;22399;-80
2023/08/14 03:17:34;;;;;;;17.60;12.30;;;;;;;18.94;100.00;99184.42;141310;1243;22579;-80
2023/08/14 03:20:35;;;;;;;14.30;11.40;;;;;;;18.96;100.00;99188.28;141077;1243;22436;-79
2023/08/14 03:23:36;;;;;;;13.60;12.00;;;;;;;18.99;100.00;99193.52;140817;1243;22378;-80
2023/08/14 03:26:37;;;;;;;58.50;13.20;;;;;;;19.01;100.00;99197.90;141055;1243;22512;-82
2023/08/14 03:29:38;;;;;;;15.70;11.20;;;;;;;18.97;100.00;99191.95;141191;1243;22388;-80
2023/08/14 03:32:40;;;;;;;10.20;9.40;;;;;;;18.92;100.00;99189.95;140667;1243;23029;-81
2023/08/14 03:35:41;;;;;;;12.50;10.10;;;;;;;18.85;100.00;99182.98;141133;1243;22575;-83
2023/08/14 03:38:42;;;;;;;14.50;9.90;;;;;;;18.87;100.00;99188.08;141546;1243;22274;-82
2023/08/14 03:41:44;;;;;;;14.70;10.10;;;;;;;18.91;100.00;99194.17;140839;1243;22383;-81
2023/08/14 03:44:45;;;;;;;11.90;10.80;;;;;;;18.94;100.00;99197.84;140858;1243;24195;-81
2023/08/14 03:47:46;;;;;;;13.30;11.10;;;;;;;18.98;100.00;99193.89;141403;1243;22678;-82
2023/08/14 03:50:47;;;;;;;12.70;10.90;;;;;;;19.05;100.00;99195.36;140946;1243;22380;-82
2023/08/14 03:53:48;;;;;;;18.00;11.00;;;;;;;19.12;100.00;99200.21;141024;1243;22662;-81
2023/08/14 03:56:49;;;;;;;15.30;12.00;;;;;;;19.21;100.00;99205.18;141311;1238;22520;-81
2023/08/14 03:59:51;;;;;;;12.70;11.50;;;;;;;19.30;100.00;99204.31;141134;1243;22386;-80
2023/08/14 04:02:52;;;;;;;12.80;11.60;;;;;;;19.39;100.00;99203.79;141177;1243;22521;-81
2023/08/14 04:05:53;;;;;;;14.50;12.70;;;;;;;19.48;100.00;99203.11;141224;1238;22515;-80
2023/08/14 04:08:54;;;;;;;66.10;16.10;;;;;;;19.55;100.00;99200.70;141015;1243;22437;-81
2023/08/14 04:11:56;;;;;;;13.50;11.20;;;;;;;19.61;100.00;99204.99;140920;1241;22358;-80
2023/08/14 04:14:57;;;;;;;10.80;9.70;;;;;;;19.67;100.00;99210.71;141022;1243;22510;-80
2023/08/14 04:17:58;;;;;;;31.30;11.50;;;;;;;19.73;100.00;99214.32;141485;1243;22486;-80
2023/08/14 04:20:59;;;;;;;62.10;14.70;;;;;;;19.82;100.00;99215.73;141086;1243;22463;-81
2023/08/14 04:24:00;;;;;;;11.70;10.20;;;;;;;19.90;100.00;99215.03;140974;1243;22545;-79
2023/08/14 04:27:01;;;;;;;27.70;12.10;;;;;;;19.97;100.00;99214.75;141530;1243;22397;-80
2023/08/14 04:30:02;;;;;;;19.00;11.40;;;;;;;20.07;100.00;99217.02;140749;1243;22586;-81
2023/08/14 04:33:03;;;;;;;18.40;10.60;;;;;;;20.20;100.00;99217.11;140746;1243;22381;-81
2023/08/14 04:36:04;;;;;;;615.20;57.00;;;;;;;20.33;100.00;99217.71;141374;1243;22553;-83
2023/08/14 04:39:07;;;;;;;26.90;11.60;;;;;;;20.48;100.00;99219.01;140864;1243;22505;-83
2023/08/14 04:42:08;;;;;;;18.80;11.00;;;;;;;20.61;100.00;99225.24;141368;1243;22353;-80
2023/08/14 04:45:09;;;;;;;32.20;11.20;;;;;;;20.73;100.00;99226.73;141570;1243;22562;-81
2023/08/14 04:48:10;;;;;;;35.80;12.20;;;;;;;20.84;100.00;99229.88;141223;1243;22209;-80
2023/08/14 04:51:12;;;;;;;14.20;10.20;;;;;;;20.92;100.00;99237.81;141117;1243;22376;-80
2023/08/14 04:54:13;;;;;;;19.30;15.40;;;;;;;21.01;100.00;99233.72;140936;1243;22523;-80
2023/08/14 04:57:14;;;;;;;103.10;17.30;;;;;;;21.10;100.00;99230.13;141613;1243;22374;-81
2023/08/14 05:00:15;;;;;;;30.80;11.30;;;;;;;21.26;100.00;99232.92;140968;1243;22377;-81
2023/08/14 05:03:16;;;;;;;31.30;11.10;;;;;;;21.45;100.00;99232.29;141153;1243;22523;-81
2023/08/14 05:06:17;;;;;;;15.10;10.10;;;;;;;21.60;100.00;99232.77;141571;1243;22844;-80
2023/08/14 05:09:18;;;;;;;15.50;9.30;;;;;;;21.74;100.00;99234.56;141230;1243;22771;-81
2023/08/14 05:12:19;;;;;;;96.70;14.20;;;;;;;21.87;100.00;99234.55;141212;1243;22527;-82
2023/08/14 05:15:21;;;;;;;13.30;9.00;;;;;;;22.02;100.00;99229.90;141447;1243;22486;-82
2023/08/14 05:18:22;;;;;;;11.50;9.20;;;;;;;22.09;100.00;99228.83;140967;1243;22541;-83
2023/08/14 05:21:26;;;;;;;82.20;13.70;;;;;;;22.10;100.00;99231.98;141146;1239;22511;-82
2023/08/14 05:24:28;;;;;;;20.40;10.30;;;;;;;22.15;100.00;99236.27;140858;1243;22869;-81
2023/08/14 05:27:36;;;;;;;12.60;8.20;;;;;;;22.19;100.00;99233.30;141263;1243;22503;-81
2023/08/14 05:30:37;;;;;;;9.00;8.20;;;;;;;22.26;100.00;99229.03;141224;1243;22530;-81
2023/08/14 05:33:39;;;;;;;8.90;7.60;;;;;;;22.40;100.00;99232.70;141516;1243;22221;-81
2023/08/14 05:36:40;;;;;;;11.40;7.50;;;;;;;22.61;100.00;99237.73;141519;1243;22308;-81
2023/08/14 05:39:41;;;;;;;9.00;8.00;;;;;;;22.88;100.00;99240.14;141518;1243;22289;-82
2023/08/14 05:42:42;;;;;;;14.00;7.40;;;;;;;23.13;100.00;99246.41;141494;1243;22292;-81
2023/08/14 05:45:46;;;;;;;26.50;10.10;;;;;;;23.46;100.00;99248.73;141561;1243;22378;-82
2023/08/14 05:48:47;;;;;;;12.30;8.30;;;;;;;23.85;100.00;99248.47;141492;1243;22400;-82
2023/08/14 05:51:49;;;;;;;13.60;8.20;;;;;;;24.14;100.00;99250.23;141335;1243;22562;-81
2023/08/14 05:54:50;;;;;;;15.80;9.10;;;;;;;24.38;100.00;99250.30;141137;1243;22398;-82
2023/08/14 05:57:51;;;;;;;11.60;7.00;;;;;;;24.74;100.00;99252.44;141538;1243;22310;-82
2023/08/14 06:00:52;;;;;;;13.00;9.40;;;;;;;25.13;100.00;99253.81;141243;1243;23122;-82
2023/08/14 06:03:54;;;;;;;8.10;6.60;;;;;;;25.44;100.00;99249.14;141378;1243;22847;-83
2023/08/14 06:06:55;;;;;;;7.30;6.50;;;;;;;25.57;100.00;99251.10;141146;1243;22433;-82
2023/08/14 06:09:57;;;;;;;18.10;8.00;;;;;;;25.65;100.00;99250.20;141349;1243;22509;-83
2023/08/14 06:12:58;;;;;;;9.90;7.20;;;;;;;25.92;100.00;99251.53;141345;1242;22384;-82
2023/08/14 06:15:59;;;;;;;9.70;6.80;;;;;;;25.99;100.00;99251.76;141566;1243;22261;-82
2023/08/14 06:19:01;;;;;;;6.80;5.60;;;;;;;26.05;100.00;99252.05;141151;1241;22545;-83
2023/08/14 06:22:02;;;;;;;8.30;6.20;;;;;;;26.07;100.00;99258.40;141232;1243;22377;-83
2023/08/14 06:25:06;;;;;;;9.30;6.30;;;;;;;26.15;100.00;99256.05;141593;1243;23000;-82
2023/08/14 06:28:10;;;;;;;6.20;5.60;;;;;;;26.43;100.00;99256.41;141244;1243;22500;-82
2023/08/14 06:31:12;;;;;;;10.90;7.30;;;;;;;26.56;100.00;99251.17;140908;1243;22599;-82
2023/08/14 06:34:13;;;;;;;12.40;8.00;;;;;;;26.77;100.00;99258.19;141312;1243;22536;-82
2023/08/14 06:37:14;;;;;;;15.70;7.60;;;;;;;27.04;100.00;99259.98;140818;1243;22477;-81
2023/08/14 06:40:21;;;;;;;9.40;6.20;;;;;;;27.30;100.00;99260.32;141175;1243;22476;-82
2023/08/14 06:43:27;;;;;;;6.40;5.70;;;;;;;27.57;92.76;99261.48;140455;1243;22524;-83
2023/08/14 06:46:28;;;;;;;10.20;5.10;;;;;;;27.79;63.88;99262.16;141381;1243;22406;-84
2023/08/14 06:49:29;;;;;;;8.20;5.30;;;;;;;27.96;62.46;99263.25;141131;1243;23209;-83
2023/08/14 06:52:31;;;;;;;8.40;4.50;;;;;;;28.22;61.91;99265.08;140894;1243;22489;-83
2023/08/14 06:55:32;;;;;;;272.00;22.80;;;;;;;28.54;59.05;99264.64;141299;1243;22887;-82
2023/08/14 06:58:33;;;;;;;8.60;4.40;;;;;;;28.47;58.50;99262.52;140700;1243;23043;-83
2023/08/14 07:01:34;;;;;;;4.90;3.90;;;;;;;28.29;57.60;99265.62;140879;1243;22557;-81
2023/08/14 07:04:35;;;;;;;5.30;3.90;;;;;;;28.01;57.28;99261.23;141446;1243;22686;-84
2023/08/14 07:07:37;;;;;;;10.10;4.10;;;;;;;27.92;58.34;99260.78;140673;1243;22497;-81
2023/08/14 07:10:38;;;;;;;8.00;4.00;;;;;;;28.03;58.73;99265.38;140936;1243;22624;-80
2023/08/14 07:13:39;;;;;;;8.40;4.20;;;;;;;28.23;57.67;99267.73;140954;1243;22523;-81
2023/08/14 07:16:42;;;;;;;11.70;3.90;;;;;;;28.49;56.05;99269.20;140886;1237;23455;-82
2023/08/14 07:19:47;;;;;;;6.20;3.60;;;;;;;28.53;56.03;99267.90;141540;1243;22608;-83
2023/08/14 07:22:49;;;;;;;4.00;3.40;;;;;;;28.65;56.16;99269.08;141423;1243;22424;-81
2023/08/14 07:25:50;;;;;;;4.90;3.50;;;;;;;28.74;55.47;99271.27;140825;1243;22502;-82
2023/08/14 07:28:53;;;;;;;5.40;3.80;;;;;;;28.77;55.62;99277.16;141249;1243;22326;-84
2023/08/14 07:31:54;;;;;;;5.70;3.70;;;;;;;28.90;54.51;99279.01;140909;1243;22496;-82
2023/08/14 07:35:01;;;;;;;5.50;3.80;;;;;;;28.93;54.63;99282.58;141214;1242;22326;-82
2023/08/14 07:41:24;;;;;;;4.00;3.50;;;;;;;29.16;53.94;99282.16;140954;1243;22671;-81
2023/08/14 07:44:25;;;;;;;4.00;3.60;;;;;;;29.22;53.42;99284.69;141621;1243;22244;-81
2023/08/14 07:47:26;;;;;;;3.70;3.40;;;;;;;29.31;53.07;99285.96;141257;1243;22714;-82
2023/08/14 07:50:27;;;;;;;6.70;3.40;;;;;;;29.42;52.76;99282.10;141623;1239;22229;-82
2023/08/14 07:53:29;;;;;;;4.50;3.50;;;;;;;29.47;52.37;99286.10;141641;1243;22294;-81
2023/08/14 07:56:30;;;;;;;8.50;3.80;;;;;;;29.65;51.57;99287.92;141571;1243;22335;-82
2023/08/14 07:59:31;;;;;;;7.10;3.80;;;;;;;29.94;51.25;99285.70;141619;1243;22270;-85
2023/08/14 08:02:33;;;;;;;8.60;3.70;;;;;;;30.13;50.03;99287.75;141669;1243;22275;-84
2023/08/14 08:05:34;;;;;;;3.50;3.20;;;;;;;30.35;49.40;99284.62;141652;1243;22241;-83
2023/08/14 08:08:35;;;;;;;3.50;3.20;;;;;;;30.70;48.91;99290.36;141650;1243;22741;-82
2023/08/14 08:11:36;;;;;;;4.00;3.20;;;;;;;31.04;46.84;99294.25;141640;1243;22719;-83
2023/08/14 08:14:37;;;;;;;16.30;14.60;;;;;;;31.53;45.83;99290.58;141665;1243;22196;-81
2023/08/14 08:17:38;;;;;;;5.70;3.60;;;;;;;32.14;43.67;99288.23;141630;1240;22608;-82
2023/08/14 08:20:40;;;;;;;4.00;3.60;;;;;;;32.31;42.36;99291.19;141661;1243;22590;-83
2023/08/14 08:23:41;;;;;;;5.40;2.90;;;;;;;32.08;41.52;99293.46;141657;1240;22114;-84
2023/08/14 08:26:42;;;;;;;5.60;3.30;;;;;;;31.91;42.53;99293.73;141660;1243;22369;-83
2023/08/14 08:29:44;;;;;;;6.20;2.90;;;;;;;32.07;42.55;99291.40;141667;1243;22268;-83
2023/08/14 08:32:45;;;;;;;4.00;3.20;;;;;;;32.17;42.12;99292.13;141667;1243;22187;-83
2023/08/14 08:35:46;;;;;;;5.50;3.30;;;;;;;32.12;42.52;99293.75;141599;1243;22206;-82
2023/08/14 08:38:47;;;;;;;4.00;3.30;;;;;;;32.11;42.50;99293.80;141603;1243;22213;-83
2023/08/14 08:41:49;;;;;;;3.90;3.50;;;;;;;31.94;42.16;99299.13;141611;1243;22560;-82
2023/08/14 08:44:50;;;;;;;3.60;3.20;;;;;;;31.90;42.52;99296.53;141557;1243;22333;-82
2023/08/14 08:47:51;;;;;;;4.70;2.90;;;;;;;31.86;42.79;99303.45;141250;1243;22590;-83
2023/08/14 08:50:52;;;;;;;16.40;4.70;;;;;;;31.62;42.08;99303.61;141570;1243;22240;-82
2023/08/14 08:53:54;;;;;;;8.40;3.40;;;;;;;31.29;43.15;99304.38;141610;1235;22224;-81
2023/08/14 08:57:02;;;;;;;4.80;3.40;;;;;;;31.08;44.11;99308.94;141623;1243;22298;-82
2023/08/14 09:00:03;;;;;;;7.90;3.60;;;;;;;30.88;44.58;99304.48;141592;1243;22243;-83
2023/08/14 09:03:05;;;;;;;7.50;3.60;;;;;;;30.56;45.21;99304.36;141605;1243;22275;-83
2023/08/14 09:06:08;;;;;;;6.70;3.50;;;;;;;30.22;45.82;99298.31;141606;1243;22830;-81
2023/08/14 09:09:14;;;;;;;5.50;3.70;;;;;;;29.99;46.50;99302.41;141595;1243;22025;-82
2023/08/14 09:12:26;;;;;;;3.90;3.50;;;;;;;29.87;46.57;99301.35;141118;1243;22306;-82
2023/08/14 09:15:27;;;;;;;4.30;3.60;;;;;;;29.74;47.01;99294.23;141578;1243;22270;-83
2023/08/14 09:18:28;;;;;;;5.00;3.40;;;;;;;29.71;47.41;99296.41;141579;1243;22232;-83
2023/08/14 09:21:30;;;;;;;4.00;3.60;;;;;;;29.75;47.20;99290.76;141611;1243;22702;-83
2023/08/14 09:24:31;;;;;;;5.60;3.30;;;;;;;29.78;46.71;99292.36;141589;1243;22745;-83
2023/08/14 09:30:55;;;;;;;4.70;3.20;;;;;;;30.05;46.39;99286.48;141595;1243;22634;-83
2023/08/14 09:34:00;;;;;;;3.60;3.30;;;;;;;30.05;45.77;99281.80;141609;1243;22259;-82
2023/08/14 09:37:02;;;;;;;3.90;3.30;;;;;;;30.33;44.98;99281.16;141614;1240;22266;-82
2023/08/14 09:40:04;;;;;;;70.30;10.30;;;;;;;30.66;43.21;99283.09;141578;1243;22267;-83
2023/08/14 09:43:06;;;;;;;7.80;3.60;;;;;;;30.90;43.46;99280.43;141610;1243;22258;-83
2023/08/14 09:46:07;;;;;;;3.10;2.90;;;;;;;31.18;40.99;99277.23;141563;1243;22770;-84
2023/08/14 09:49:09;;;;;;;3.30;2.90;;;;;;;31.31;39.96;99270.45;141668;1243;22224;-84
2023/08/14 09:52:10;;;;;;;9.60;3.20;;;;;;;31.48;39.90;99273.99;141712;1243;22678;-83
2023/08/14 09:55:11;;;;;;;2.40;2.20;;;;;;;31.73;38.53;99273.02;141697;1243;22067;-83
2023/08/14 09:58:12;;;;;;;311.60;28.20;;;;;;;31.91;37.15;99268.91;141661;1243;22220;-84
2023/08/14 10:01:14;;;;;;;5.80;2.70;;;;;;;32.08;36.15;99269.71;141599;1243;22088;-82
2023/08/14 10:04:15;;;;;;;39.40;5.40;;;;;;;32.17;34.90;99267.46;141598;1243;22251;-83
2023/08/14 10:07:17;;;;;;;2.40;2.20;;;;;;;32.37;34.54;99263.75;141582;1243;22303;-83
2023/08/14 10:10:18;;;;;;;2.40;2.20;;;;;;;32.55;34.00;99262.61;141623;1243;22213;-83
2023/08/14 10:13:19;;;;;;;2.50;2.30;;;;;;;32.42;33.34;99269.52;141628;1243;22670;-83
2023/08/14 10:16:22;;;;;;;22.80;3.50;;;;;;;32.22;34.46;99269.81;141639;1243;22335;-84
2023/08/14 10:19:23;;;;;;;;;;;;;;;32.38;34.07;99264.07;141649;1243;22219;-83
2023/08/14 10:22:25;;;;;;;23.60;3.70;;;;;;;32.46;33.57;99263.46;141646;1243;22176;-83
2023/08/14 10:25:26;;;;;;;4.20;2.30;;;;;;;32.70;33.31;99259.77;141628;1243;22275;-83
2023/08/14 10:28:27;;;;;;;10.30;2.30;;;;;;;32.78;33.01;99260.43;141629;1243;22289;-80
2023/08/14 10:31:34;;;;;;;3.20;1.90;;;;;;;32.92;32.88;99259.58;141564;1243;22232;-81
2023/08/14 10:34:36;;;;;;;7.90;2.50;;;;;;;33.02;32.37;99258.93;141622;1241;22229;-82
2023/08/14 10:37:38;;;;;;;17.00;3.30;;;;;;;33.20;32.47;99257.95;141627;1243;23106;-81
2023/08/14 10:40:39;;;;;;;5.80;2.70;;;;;;;33.38;32.50;99256.77;141484;1243;22244;-83
2023/08/14 10:43:41;;;;;;;3.60;2.30;;;;;;;33.47;32.30;99250.63;141580;1243;22701;-83
2023/08/14 10:46:44;;;;;;;4.10;2.10;;;;;;;33.39;32.45;99246.61;141554;1243;23038;-83
2023/08/14 10:49:45;;;;;;;7.70;3.00;;;;;;;33.29;32.51;99243.58;141555;1243;22871;-81
2023/08/14 10:52:46;;;;;;;5.20;2.40;;;;;;;33.34;32.33;99244.48;141540;1243;22155;-83
2023/08/14 10:55:48;;;;;;;4.80;2.60;;;;;;;33.49;32.41;99241.48;141532;1243;22242;-82
2023/08/14 10:58:50;;;;;;;3.50;2.90;;;;;;;33.56;32.06;99238.75;141391;1243;248085;-83
2023/08/14 11:01:54;;;;;;;16.20;3.60;;;;;;;33.50;33.16;99234.38;141567;1243;22213;-83
2023/08/14 11:05:03;;;;;;;9.10;4.10;;;;;;;33.70;32.57;99233.43;141531;1243;22702;-83
2023/08/14 11:08:05;;;;;;;4.20;3.30;;;;;;;33.68;32.52;99229.79;141557;1243;22328;-82
2023/08/14 11:11:11;;;;;;;4.60;2.80;;;;;;;33.71;32.76;99230.78;141546;1243;22358;-82
2023/08/14 11:14:12;;;;;;;7.90;4.20;;;;;;;33.82;32.31;99226.73;141587;1243;22261;-81
2023/08/14 11:17:14;;;;;;;6.00;3.40;;;;;;;33.92;32.48;99223.77;141625;1243;22231;-83
2023/08/14 11:20:15;;;;;;;5.60;3.10;;;;;;;33.99;32.72;99224.71;141622;1243;22332;-82
2023/08/14 11:23:16;;;;;;;6.40;3.00;;;;;;;34.13;31.66;99221.95;141558;1243;22188;-83
2023/08/14 11:26:17;;;;;;;15.20;10.90;;;;;;;34.25;31.69;99217.06;141620;1243;22085;-83
2023/08/14 11:29:19;;;;;;;43.70;6.70;;;;;;;34.27;32.00;99220.48;141631;1243;22078;-82
2023/08/14 11:32:23;;;;;;;10.20;3.10;;;;;;;34.33;31.70;99220.55;141602;1243;22291;-83
2023/08/14 11:35:28;;;;;;;7.20;2.70;;;;;;;34.43;30.91;99219.92;141616;1243;23069;-82
2023/08/14 11:38:31;;;;;;;13.40;3.50;;;;;;;34.52;30.21;99219.73;141575;1243;22832;-82
2023/08/14 11:41:32;;;;;;;8.10;2.90;;;;;;;34.58;30.22;99219.13;141542;1243;22235;-82
2023/08/14 11:44:34;;;;;;;6.80;3.50;;;;;;;34.61;30.31;99219.89;141573;1243;22346;-83
2023/08/14 11:47:36;;;;;;;5.00;2.50;;;;;;;34.57;30.21;99216.48;141590;1243;22307;-83
2023/08/14 11:50:37;;;;;;;4.60;2.60;;;;;;;34.61;30.18;99214.67;141588;1243;22295;-82
2023/08/14 11:53:42;;;;;;;4.00;2.30;;;;;;;34.69;29.83;99213.45;141559;1243;22182;-83
2023/08/14 11:56:43;;;;;;;7.50;3.50;;;;;;;34.74;29.48;99209.27;141199;1243;22746;-83
2023/08/14 11:59:45;;;;;;;4.90;2.40;;;;;;;34.80;29.77;99208.65;141600;1243;22368;-83
2023/08/14 12:02:46;;;;;;;6.50;2.50;;;;;;;34.74;29.51;99202.95;141519;1243;22143;-82
2023/08/14 12:05:50;;;;;;;5.70;2.40;;;;;;;34.69;29.75;99195.64;141535;1243;22142;-83
2023/08/14 12:09:03;;;;;;;7.60;2.70;;;;;;;34.75;30.39;99194.95;141500;1243;22282;-82
2023/08/14 12:12:04;;;;;;;7.80;2.40;;;;;;;34.89;30.00;99191.81;141542;1243;22235;-82
2023/08/14 12:15:08;;;;;;;5.90;2.80;;;;;;;34.94;30.02;99192.89;141521;1242;22394;-82
2023/08/14 12:18:10;;;;;;;3.80;2.50;;;;;;;34.92;29.86;99193.75;141557;1243;22346;-83
2023/08/14 12:21:11;;;;;;;3.80;2.60;;;;;;;34.95;29.93;99192.39;141562;1243;22321;-82
2023/08/14 12:24:13;;;;;;;3.40;2.60;;;;;;;34.97;29.79;99188.46;141564;1243;22653;-84
2023/08/14 12:27:14;;;;;;;4.80;2.60;;;;;;;34.93;29.96;99186.45;141559;1243;22297;-83
2023/08/14 12:30:16;;;;;;;5.10;2.40;;;;;;;34.89;30.40;99180.42;141560;1243;22232;-82
2023/08/14 12:33:17;;;;;;;3.70;2.60;;;;;;;34.87;30.65;99180.09;141497;1243;22433;-83
2023/08/14 12:36:18;;;;;;;7.00;2.50;;;;;;;34.91;30.64;99175.36;141506;1243;22177;-82
2023/08/14 12:39:20;;;;;;;14.50;3.00;;;;;;;34.94;30.68;99172.82;141534;1243;22689;-80
2023/08/14 12:42:21;;;;;;;9.90;3.00;;;;;;;34.91;30.87;99172.15;141584;1243;22218;-83
2023/08/14 12:45:22;;;;;;;7.90;2.50;;;;;;;34.84;30.58;99173.42;141604;1243;22547;-83
2023/08/14 12:48:23;;;;;;;6.00;2.50;;;;;;;34.88;31.03;99174.44;141564;1243;22235;-82
2023/08/14 12:51:24;;;;;;;7.30;3.10;;;;;;;34.85;30.81;99172.81;141605;1243;22692;-80
2023/08/14 12:54:25;;;;;;;3.70;3.00;;;;;;;34.85;31.36;99167.75;141600;1243;22217;-83
2023/08/14 12:57:26;;;;;;;4.50;2.40;;;;;;;35.01;31.70;99162.95;141599;1243;22225;-83
2023/08/14 13:00:28;;;;;;;4.40;2.70;;;;;;;34.99;31.68;99161.13;141601;1243;22202;-82
2023/08/14 13:03:29;;;;;;;4.30;2.60;;;;;;;34.97;31.90;99161.66;141690;1243;22298;-83
2023/08/14 13:06:30;;;;;;;7.20;2.70;;;;;;;34.94;32.03;99155.23;141666;1243;22350;-83
2023/08/14 13:09:32;;;;;;;7.20;3.50;;;;;;;34.92;32.01;99156.55;141494;1243;22756;-83
2023/08/14 13:12:33;;;;;;;5.80;2.80;;;;;;;34.97;31.96;99153.57;141592;1243;22856;-82
2023/08/14 13:15:36;;;;;;;8.60;3.20;;;;;;;35.07;31.81;99153.39;141682;1243;22185;-84
2023/08/14 13:18:38;;;;;;;5.20;3.20;;;;;;;35.10;31.45;99150.21;141665;1243;22552;-83
2023/08/14 13:21:39;;;;;;;5.90;2.80;;;;;;;35.04;32.02;99156.92;141664;1241;22626;-83
2023/08/14 13:24:41;;;;;;;;;;;;;;;35.16;31.86;99152.84;141723;1243;22280;-84
2023/08/14 13:27:43;;;;;;;9.20;3.00;;;;;;;35.15;31.50;99155.63;141661;1243;22103;-83
2023/08/14 13:30:44;;;;;;;3.60;2.90;;;;;;;35.25;31.03;99151.36;141611;1243;22305;-83
2023/08/14 13:33:46;;;;;;;5.90;2.60;;;;;;;35.36;30.48;99150.94;141587;1243;22253;-82
2023/08/14 13:36:53;;;;;;;7.30;2.90;;;;;;;35.39;30.02;99149.59;141609;1243;22277;-84
2023/08/14 13:39:55;;;;;;;5.10;3.20;;;;;;;35.43;30.21;99146.73;141617;1243;22562;-83
2023/08/14 13:42:56;;;;;;;5.80;2.90;;;;;;;35.35;30.01;99141.96;141675;1243;22237;-83
2023/08/14 13:45:58;;;;;;;3.90;2.80;;;;;;;35.27;29.77;99147.37;141694;1243;22255;-84
2023/08/14 13:49:00;;;;;;;8.20;3.30;;;;;;;35.31;30.17;99150.80;141682;1243;22563;-83
2023/08/14 13:52:02;;;;;;;7.50;3.20;;;;;;;35.13;29.68;99150.94;141313;1243;22283;-84
2023/08/14 13:55:07;;;;;;;5.60;3.10;;;;;;;34.87;30.12;99150.39;141732;1240;22648;-84
2023/08/14 13:58:08;;;;;;;11.80;3.60;;;;;;;34.77;31.06;99147.41;141744;1243;22660;-83
2023/08/14 14:01:10;;;;;;;4.50;2.80;;;;;;;34.78;30.75;99145.83;141657;1243;22186;-84